M/V Oriole — WDE6982 — position and weather

sailwx.info

Track history (hours):
 
Tides and Currents Weather Stations Pressure Air Temp Water Temp Dewpoint Dewpoint Depression Visibility Wind Speed Wind Dir Waves Ship Positions

M/V Oriole

Owner: NATIVE SON INC., ST. THOMAS, VI. More information available from US FCC via Universal Licensing System and Coast Guard Vessel Documentation Center.

Last reported at 2015-Jul-30 19:33 UTC. Time now 2015-Jul-30 20:08 UTC.
Position N 18°20' W 064°48'.

Length 25 m.

Type: Passenger vessel. MMSI: 366755670.

Date/timePositionNaut miles runAvg speedWind from/ knotsBaromVisibWave heightAir tempDewpointWater temp
2015-Jul-30 19:33N 18°20' W 064°48'2 1.0
2015-Jul-30 17:32N 18°20' W 064°50'8 8.1
2015-Jul-30 16:32N 18°23' W 064°42'6 2.1
2015-Jul-30 13:33N 18°20' W 064°48'2 1.5
2015-Jul-30 12:29N 18°21' W 064°49'2 1.7
2015-Jul-30 11:32N 18°20' W 064°48'8 7.2
2015-Jul-30 10:28N 18°23' W 064°40'2 0.2
2015-Jul-29 23:13N 18°24' W 064°38'1115.7
2015-Jul-29 22:31N 18°21' W 064°49'1 0.8
2015-Jul-29 20:33N 18°20' W 064°48'2 2.2
2015-Jul-29 19:30N 18°22' W 064°47'3 1.3
2015-Jul-29 17:33N 18°20' W 064°48'7 6.4
2015-Jul-29 16:31N 18°23' W 064°42'6 1.8
2015-Jul-29 13:06N 18°20' W 064°48'611.2
2015-Jul-29 12:33N 18°23' W 064°42'6 5.6
2015-Jul-29 11:27N 18°20' W 064°48'6 6.4
2015-Jul-29 10:29N 18°23' W 064°42'2 0.1
2015-Jul-28 22:33N 18°23' W 064°41'9 6.3
2015-Jul-28 21:05N 18°20' W 064°50'2 3.4
2015-Jul-28 20:30N 18°20' W 064°48'1 1.5
2015-Jul-28 19:33N 18°21' W 064°48'3 1.2
2015-Jul-28 17:19N 18°20' W 064°50'810.0
2015-Jul-28 16:31N 18°23' W 064°42'8 2.6
2015-Jul-28 13:30N 18°20' W 064°50'8 8.5
2015-Jul-28 12:33N 18°23' W 064°42'6 5.7
2015-Jul-28 11:29N 18°20' W 064°48'2 0.2
2015-Jul-27 21:31N 18°22' W 064°47'2 2.1
2015-Jul-27 20:30N 18°20' W 064°48'3 2.8
2015-Jul-27 19:33N 18°22' W 064°46'4 2.1
2015-Jul-27 17:31N 18°20' W 064°50'8 7.6
2015-Jul-27 16:28N 18°23' W 064°42'6 2.1
2015-Jul-27 13:33N 18°20' W 064°48'6 6.0
2015-Jul-27 12:33N 18°23' W 064°42'6 5.9
2015-Jul-27 11:32N 18°20' W 064°48'6 5.9
2015-Jul-27 10:32N 18°23' W 064°42'4 0.3
2015-Jul-26 22:12N 18°24' W 064°38'10 6.0
2015-Jul-26 20:32N 18°20' W 064°48'1 1.1
2015-Jul-26 19:28N 18°21' W 064°49'1 0.6
2015-Jul-26 17:33N 18°20' W 064°48'6 5.6
2015-Jul-26 16:27N 18°23' W 064°42'8 2.9
2015-Jul-26 13:31N 18°20' W 064°50'8 8.4
2015-Jul-26 12:31N 18°23' W 064°42'6 4.8
2015-Jul-26 11:13N 18°20' W 064°48'6 8.8
2015-Jul-26 10:32N 18°23' W 064°42'5 0.4
2015-Jul-25 22:22N 18°24' W 064°38'10 5.5
2015-Jul-25 20:30N 18°20' W 064°48'1 1.6
2015-Jul-25 19:32N 18°21' W 064°47'3 1.5
2015-Jul-25 17:21N 18°20' W 064°50'810.2
2015-Jul-25 16:32N 18°23' W 064°42'6 2.0
2015-Jul-25 13:24N 18°20' W 064°48'2 2.8
2015-Jul-25 12:32N 18°22' W 064°46'2 1.9
2015-Jul-25 11:17N 18°20' W 064°48'7 9.9
2015-Jul-25 10:32N 18°23' W 064°40'2 0.0
2015-Jul-23 22:27N 18°23' W 064°39'9 4.8
2015-Jul-23 20:33N 18°20' W 064°48'4 3.9
2015-Jul-23 19:31N 18°23' W 064°45'6 2.6
2015-Jul-23 17:17N 18°20' W 064°50'710.0
2015-Jul-23 16:32N 18°23' W 064°43'6 1.8
2015-Jul-23 13:24N 18°20' W 064°48'2 2.3
2015-Jul-23 12:32N 18°22' W 064°47'2 1.7
2015-Jul-23 11:19N 18°20' W 064°48'6 6.5
2015-Jul-23 10:24N 18°23' W 064°42'0 0.0
2015-Jul-22 22:32N 18°23' W 064°42'6 2.9
2015-Jul-22 20:31N 18°20' W 064°48'0 0.0
2015-Jul-22 17:31N 18°20' W 064°48'6 6.0
2015-Jul-22 16:29N 18°23' W 064°42'8 2.7
2015-Jul-22 13:23N 18°20' W 064°50'8 9.9
2015-Jul-22 12:32N 18°23' W 064°42'6 6.2
2015-Jul-22 11:33N 18°20' W 064°48'9 0.7
2015-Jul-21 22:20N 18°23' W 064°39'9 4.8
2015-Jul-21 20:33N 18°20' W 064°48'3 3.4
2015-Jul-21 19:33N 18°22' W 064°45'3 1.5
2015-Jul-21 17:21N 18°20' W 064°48'2 1.1
2015-Jul-21 15:27N 18°19' W 064°50'8 8.6
2015-Jul-21 14:29N 18°23' W 064°42'5 4.7
2015-Jul-21 13:21N 18°21' W 064°47'3 3.3
2015-Jul-21 12:25N 18°20' W 064°50'2 2.4
2015-Jul-21 11:23N 18°20' W 064°48'8 9.3
2015-Jul-21 10:33N 18°23' W 064°40'2 0.2
2015-Jul-20 22:14N 18°24' W 064°38'10 5.6
2015-Jul-20 20:25N 18°20' W 064°48'  
Track history (hours):
 
Tides and Currents Weather Stations Pressure Air Temp Water Temp Dewpoint Dewpoint Depression Visibility Wind Speed Wind Dir Waves Ship Positions

M/V Oriole

Owner: NATIVE SON INC., ST. THOMAS, VI. More information available from US FCC via Universal Licensing System and Coast Guard Vessel Documentation Center.

Last reported at 2015-Jul-30 19:33 UTC. Time now 2015-Jul-30 20:08 UTC.
Position N 18°20' W 064°48'.

Length 25 m.

Type: Passenger vessel. MMSI: 366755670.

Date/timePositionNaut miles runAvg speedWind from/ knotsBaromVisibWave heightAir tempDewpointWater temp
2015-Jul-30 19:33N 18°20' W 064°48'2 1.0
2015-Jul-30 17:32N 18°20' W 064°50'8 8.1
2015-Jul-30 16:32N 18°23' W 064°42'6 2.1
2015-Jul-30 13:33N 18°20' W 064°48'2 1.5
2015-Jul-30 12:29N 18°21' W 064°49'2 1.7
2015-Jul-30 11:32N 18°20' W 064°48'8 7.2
2015-Jul-30 10:28N 18°23' W 064°40'2 0.2
2015-Jul-29 23:13N 18°24' W 064°38'1115.7
2015-Jul-29 22:31N 18°21' W 064°49'1 0.8
2015-Jul-29 20:33N 18°20' W 064°48'2 2.2
2015-Jul-29 19:30N 18°22' W 064°47'3 1.3
2015-Jul-29 17:33N 18°20' W 064°48'7 6.4
2015-Jul-29 16:31N 18°23' W 064°42'6 1.8
2015-Jul-29 13:06N 18°20' W 064°48'611.2
2015-Jul-29 12:33N 18°23' W 064°42'6 5.6
2015-Jul-29 11:27N 18°20' W 064°48'6 6.4
2015-Jul-29 10:29N 18°23' W 064°42'2 0.1
2015-Jul-28 22:33N 18°23' W 064°41'9 6.3
2015-Jul-28 21:05N 18°20' W 064°50'2 3.4
2015-Jul-28 20:30N 18°20' W 064°48'1 1.5
2015-Jul-28 19:33N 18°21' W 064°48'3 1.2
2015-Jul-28 17:19N 18°20' W 064°50'810.0
2015-Jul-28 16:31N 18°23' W 064°42'8 2.6
2015-Jul-28 13:30N 18°20' W 064°50'8 8.5
2015-Jul-28 12:33N 18°23' W 064°42'6 5.7
2015-Jul-28 11:29N 18°20' W 064°48'2 0.2
2015-Jul-27 21:31N 18°22' W 064°47'2 2.1
2015-Jul-27 20:30N 18°20' W 064°48'3 2.8
2015-Jul-27 19:33N 18°22' W 064°46'4 2.1
2015-Jul-27 17:31N 18°20' W 064°50'8 7.6
2015-Jul-27 16:28N 18°23' W 064°42'6 2.1
2015-Jul-27 13:33N 18°20' W 064°48'6 6.0
2015-Jul-27 12:33N 18°23' W 064°42'6 5.9
2015-Jul-27 11:32N 18°20' W 064°48'6 5.9
2015-Jul-27 10:32N 18°23' W 064°42'4 0.3
2015-Jul-26 22:12N 18°24' W 064°38'10 6.0
2015-Jul-26 20:32N 18°20' W 064°48'1 1.1
2015-Jul-26 19:28N 18°21' W 064°49'1 0.6
2015-Jul-26 17:33N 18°20' W 064°48'6 5.6
2015-Jul-26 16:27N 18°23' W 064°42'8 2.9
2015-Jul-26 13:31N 18°20' W 064°50'8 8.4
2015-Jul-26 12:31N 18°23' W 064°42'6 4.8
2015-Jul-26 11:13N 18°20' W 064°48'6 8.8
2015-Jul-26 10:32N 18°23' W 064°42'5 0.4
2015-Jul-25 22:22N 18°24' W 064°38'10 5.5
2015-Jul-25 20:30N 18°20' W 064°48'1 1.6
2015-Jul-25 19:32N 18°21' W 064°47'3 1.5
2015-Jul-25 17:21N 18°20' W 064°50'810.2
2015-Jul-25 16:32N 18°23' W 064°42'6 2.0
2015-Jul-25 13:24N 18°20' W 064°48'2 2.8
2015-Jul-25 12:32N 18°22' W 064°46'2 1.9
2015-Jul-25 11:17N 18°20' W 064°48'7 9.9
2015-Jul-25 10:32N 18°23' W 064°40'2 0.0
2015-Jul-23 22:27N 18°23' W 064°39'9 4.8
2015-Jul-23 20:33N 18°20' W 064°48'4 3.9
2015-Jul-23 19:31N 18°23' W 064°45'6 2.6
2015-Jul-23 17:17N 18°20' W 064°50'710.0
2015-Jul-23 16:32N 18°23' W 064°43'6 1.8
2015-Jul-23 13:24N 18°20' W 064°48'2 2.3
2015-Jul-23 12:32N 18°22' W 064°47'2 1.7
2015-Jul-23 11:19N 18°20' W 064°48'6 6.5
2015-Jul-23 10:24N 18°23' W 064°42'0 0.0
2015-Jul-22 22:32N 18°23' W 064°42'6 2.9
2015-Jul-22 20:31N 18°20' W 064°48'0 0.0
2015-Jul-22 17:31N 18°20' W 064°48'6 6.0
2015-Jul-22 16:29N 18°23' W 064°42'8 2.7
2015-Jul-22 13:23N 18°20' W 064°50'8 9.9
2015-Jul-22 12:32N 18°23' W 064°42'6 6.2
2015-Jul-22 11:33N 18°20' W 064°48'9 0.7
2015-Jul-21 22:20N 18°23' W 064°39'9 4.8
2015-Jul-21 20:33N 18°20' W 064°48'3 3.4
2015-Jul-21 19:33N 18°22' W 064°45'3 1.5
2015-Jul-21 17:21N 18°20' W 064°48'2 1.1
2015-Jul-21 15:27N 18°19' W 064°50'8 8.6
2015-Jul-21 14:29N 18°23' W 064°42'5 4.7
2015-Jul-21 13:21N 18°21' W 064°47'3 3.3
2015-Jul-21 12:25N 18°20' W 064°50'2 2.4
2015-Jul-21 11:23N 18°20' W 064°48'8 9.3
2015-Jul-21 10:33N 18°23' W 064°40'2 0.2
2015-Jul-20 22:14N 18°24' W 064°38'10 5.6
2015-Jul-20 20:25N 18°20' W 064°48'  

Dump ship's entire track history